Архив погоды в Бисере

Метеограмма Бисер
Среда, 23 Августа
Время местн. Темп Ветер Видим Явления Облачность нижн/средн/верх Атм. давл. Влжн Точка росы ВНГО R Сост. почвы Tg s
Напр Скр Прв ур.ст ур.м изм
11:00 +22.9° Ю-З 2 - 20 км - переменная облачность 730 770 +0.2 66% +16.1° 1 км - - - -
08:00 +18.3° Ю,Ю-З 2 - 4 км дымка переменная облачность 730 770 +0.3 90% +16.6° более 2.5 км 0 Сухая (без трещин) - -
05:00 +13.8° В,С-В 1 - 1 км дымка ясно 730 771 +0.1 97% +13.3° более 2.5 км - - - -
02:00 +15° штиль 0 - 4 км дымка ясно 730 771 +0.3 97% +14.5° более 2.5 км - - - -
Вторник, 22 Августа
Время местн. Темп Ветер Видим Явления Облачность нижн/средн/верх Атм. давл. Влжн Точка росы ВНГО R Сост. почвы Tg s
Напр Скр Прв ур.ст ур.м изм
23:00 +16.8° штиль 0 - 50 км - ясно 729 770 +0.3 93% +15.6° более 2.5 км - - - -
20:00 +23.1° З 1 - 50 км - переменная облачность 729 769 +0.1 69% +17.2° 1 км 0 - - -
17:00 +26.7° Ю-З 2 - более 50 км - переменная облачность 729 768 +0.1 52% +16° 1 км - - - -
14:00 +26.7° Ю-З 1 - более 50 км - переменная облачность 729 768 +0.1 51% +15.6° 1 км - - - -
11:00 +24.2° Ю-З 2 - 50 км небо без изменений {туман} ясно 729 769 +0.4 65% +17.2° более 2.5 км - - - -
08:00 +16.1° С,С-В 1 - 2 км туман ясно 729 770 +0.8 97% +15.7° более 2.5 км 0 Сухая (без трещин) +11° -
05:00 +14.3° штиль 0 - 2 км дымка ясно 728 769 +0.6 97% +13.9° более 2.5 км - - - -
02:00 +15.7° Ю-З 1 - 2 км дымка ясно 728 768 +0.5 97% +15.3° более 2.5 км - - - -
Понедельник, 21 Августа
Время местн. Темп Ветер Видим Явления Облачность нижн/средн/верх Атм. давл. Влжн Точка росы ВНГО R Сост. почвы Tg s
Напр Скр Прв ур.ст ур.м изм
23:00 +18.4° С,С-З 1 - 10 км - ясно 727 767 +0.2 93% +17.2° более 2.5 км - - - -
20:00 +21.3° З 1 - 10 км - облачно с прояснениями 727 767 +0.2 80% +17.7° более 2.5 км 0 - - -
17:00 +22.8° З 4 - 50 км - облачно 727 766 -0.2 70% +17.1° 1 км - - - -
14:00 +21.6° З 3 - более 50 км - облачно 727 767 +0.1 66% +15° 1 км - - - -
11:00 +17.3° Ю 2 - 4 км туман облачно с прояснениями 727 767 +0.2 97% +16.9° 1 км - - - -
08:00 +13.4° штиль 0 - 0.5 км туман неба не видно 727 768 +0.2 98% +13.1° - 0.3 Сухая (без трещин) - -
05:00 +13.3° С 3 - 1 км дымка ясно 727 767 +0.5 97% +12.9° более 2.5 км - - - -
02:00 +12.7° штиль 0 - 4 км дымка ясно 726 767 -0.1 95% +11.9° более 2.5 км - - - -
Воскресенье, 20 Августа
Время местн. Темп Ветер Видим Явления Облачность нижн/средн/верх Атм. давл. Влжн Точка росы ВНГО R Сост. почвы Tg s
Напр Скр Прв ур.ст ур.м изм
23:00 +14.4° З 2 - 20 км - переменная облачность 726 767 +0.5 96% +13.7° более 2.5 км - - - -
20:00 +16.9° Ю-З 2 - более 50 км - преимущественно облачно 726 766 +0.2 89% +15° 1 км 0.3 - - -
17:00 +16.7° З 3 - 10 км небо без изменений {ливневые осадки} преимущественно облачно 726 766 0 90% +15° 1 км - - - -
14:00 +14.7° З 4 - 4 км ливневый дождь облачно 726 766 +0.1 96% +14.1° 1 км - - - -
11:00 +15.3° Ю-З 5 - 10 км небо без изменений {ливневые осадки} преимущественно облачно 726 766 -0.8 89% +13.5° 1 км - - - -
08:00 +12.3° Ю-З 3 - 4 км дымка {ливневые осадки} облачно 726 767 -0.6 97% +11.8° 1 км 1 Влажная (без луж) - -